createdAt,value
2019-04-30T00:01:54.974Z,99.90
2019-04-30T00:04:29.589Z,99.90
2019-04-30T00:06:56.287Z,99.90
2019-04-30T00:09:25.628Z,99.90
2019-04-30T00:11:57.988Z,99.90
2019-04-30T00:14:25.040Z,99.90
2019-04-30T00:16:55.393Z,99.90
2019-04-30T00:19:25.957Z,99.90
2019-04-30T00:22:00.135Z,99.90
2019-04-30T00:24:25.999Z,99.90
2019-04-30T00:27:01.018Z,99.90
2019-04-30T00:29:31.018Z,99.90
2019-04-30T00:32:04.409Z,99.90
2019-04-30T00:34:30.933Z,99.90
2019-04-30T00:37:01.118Z,99.90
2019-04-30T00:39:29.933Z,99.90
2019-04-30T00:41:58.677Z,99.90
2019-04-30T00:44:28.494Z,99.90
2019-04-30T00:47:00.647Z,99.90
2019-04-30T00:49:27.908Z,99.90
2019-04-30T00:51:58.198Z,99.90
2019-04-30T00:54:30.673Z,99.90
2019-04-30T00:57:03.705Z,99.90
2019-04-30T00:59:29.033Z,99.90
2019-04-30T01:02:11.044Z,99.90
2019-04-30T01:04:44.998Z,99.90
2019-04-30T01:07:15.542Z,99.90
2019-04-30T01:09:49.872Z,99.90
2019-04-30T01:12:27.664Z,99.90
2019-04-30T01:14:49.797Z,99.90
2019-04-30T01:17:18.976Z,99.90
2019-04-30T01:19:51.059Z,99.90
2019-04-30T01:22:21.250Z,99.90
2019-04-30T01:24:49.778Z,99.90
2019-04-30T01:27:19.102Z,99.90
2019-04-30T01:29:48.709Z,99.90
2019-04-30T01:32:20.986Z,99.90
2019-04-30T01:34:52.213Z,99.90
2019-04-30T01:37:20.483Z,99.90
2019-04-30T01:39:49.296Z,99.90
2019-04-30T01:42:19.094Z,99.90
2019-04-30T01:44:52.488Z,99.90
2019-04-30T01:47:21.427Z,99.90
2019-04-30T01:49:49.599Z,99.90
2019-04-30T01:52:19.406Z,99.90
2019-04-30T01:54:49.050Z,99.90
2019-04-30T01:57:55.403Z,99.90
2019-04-30T02:00:32.761Z,99.90
2019-04-30T02:03:01.928Z,99.90
2019-04-30T02:05:30.696Z,99.90
2019-04-30T02:07:59.488Z,99.90
2019-04-30T02:10:28.618Z,99.90
2019-04-30T02:12:59.036Z,99.90
2019-04-30T02:15:29.212Z,99.90
2019-04-30T02:17:58.764Z,99.90
2019-04-30T02:20:28.730Z,99.90
2019-04-30T02:22:58.686Z,99.90
2019-04-30T02:25:29.574Z,99.90
2019-04-30T02:27:59.272Z,99.90
2019-04-30T02:30:30.894Z,99.90
2019-04-30T02:33:00.552Z,99.90
2019-04-30T02:35:54.620Z,99.90
2019-04-30T02:38:30.240Z,99.90
2019-04-30T02:40:59.849Z,99.90
2019-04-30T02:43:31.679Z,99.90
2019-04-30T02:46:01.578Z,99.90
2019-04-30T02:48:33.203Z,99.90
2019-04-30T02:51:03.936Z,99.90
2019-04-30T02:54:05.935Z,99.90
2019-04-30T02:56:34.664Z,99.90
2019-04-30T02:59:04.065Z,99.90
2019-04-30T03:01:32.967Z,99.90
2019-04-30T03:04:01.769Z,99.90
2019-04-30T03:06:30.703Z,99.90
2019-04-30T03:09:01.027Z,99.90
2019-04-30T03:11:30.438Z,99.90
2019-04-30T03:13:59.592Z,99.90
2019-04-30T03:16:36.893Z,99.90
2019-04-30T03:19:24.534Z,99.90
2019-04-30T03:22:00.213Z,99.90
2019-04-30T03:24:29.559Z,99.90
2019-04-30T03:26:59.433Z,99.90
2019-04-30T03:29:30.254Z,99.90
2019-04-30T03:32:02.692Z,99.90
2019-04-30T03:34:32.633Z,99.90
2019-04-30T03:37:02.129Z,99.90
2019-04-30T03:39:33.656Z,99.90
2019-04-30T03:42:00.911Z,99.90
2019-04-30T03:44:32.429Z,99.90
2019-04-30T03:47:00.249Z,99.90
2019-04-30T03:49:29.931Z,99.90
2019-04-30T03:51:59.793Z,99.90
2019-04-30T03:54:29.431Z,99.90
2019-04-30T03:57:00.850Z,99.90
2019-04-30T03:59:30.414Z,99.90
2019-04-30T04:02:06.088Z,99.90
2019-04-30T04:05:03.977Z,99.90
2019-04-30T04:07:41.538Z,99.90
2019-04-30T04:10:50.146Z,99.90
2019-04-30T04:13:19.736Z,99.90
2019-04-30T04:15:49.884Z,99.90
2019-04-30T04:18:20.253Z,99.90
2019-04-30T04:20:52.069Z,99.90
2019-04-30T04:23:19.695Z,99.90
2019-04-30T04:25:49.905Z,99.90
2019-04-30T04:28:20.273Z,99.90
2019-04-30T04:30:50.568Z,99.90
2019-04-30T04:33:20.065Z,99.90
2019-04-30T04:35:49.850Z,99.90
2019-04-30T04:38:20.481Z,99.90
2019-04-30T04:40:50.167Z,99.90
2019-04-30T04:43:20.158Z,99.90
2019-04-30T04:45:49.878Z,99.90
2019-04-30T04:48:19.918Z,99.90
2019-04-30T04:50:50.055Z,99.90
2019-04-30T04:53:19.568Z,99.90
2019-04-30T04:55:49.858Z,99.90
2019-04-30T04:58:21.710Z,99.90
2019-04-30T05:01:11.706Z,99.90
2019-04-30T05:03:40.070Z,99.90
2019-04-30T05:06:11.395Z,99.90
2019-04-30T05:08:39.707Z,99.90
2019-04-30T05:11:09.581Z,99.90
2019-04-30T05:13:38.910Z,99.90
2019-04-30T05:16:09.223Z,99.90
2019-04-30T05:18:39.116Z,99.90
2019-04-30T05:21:08.804Z,99.90
2019-04-30T05:23:39.583Z,99.90
2019-04-30T05:26:08.430Z,99.90
2019-04-30T05:28:39.369Z,99.90
2019-04-30T05:31:09.652Z,99.90
2019-04-30T05:33:39.082Z,99.90
2019-04-30T05:36:09.295Z,99.90
2019-04-30T05:38:39.152Z,99.90
2019-04-30T05:41:09.311Z,99.90
2019-04-30T05:43:38.728Z,99.90
2019-04-30T05:46:08.365Z,99.90
2019-04-30T05:48:39.604Z,99.90
2019-04-30T05:51:09.001Z,99.90
2019-04-30T05:53:39.336Z,99.90
2019-04-30T05:56:09.447Z,99.90
2019-04-30T05:58:39.762Z,99.90
2019-04-30T06:01:09.715Z,99.90
2019-04-30T06:03:38.773Z,99.90
2019-04-30T06:06:09.164Z,99.90
2019-04-30T06:08:49.096Z,99.90
2019-04-30T06:11:32.567Z,99.90
2019-04-30T06:14:19.174Z,99.90
2019-04-30T06:17:04.757Z,99.90
2019-04-30T06:19:33.635Z,99.90
2019-04-30T06:22:07.827Z,99.90
2019-04-30T06:24:32.999Z,99.90
2019-04-30T06:27:10.574Z,99.90
2019-04-30T06:29:39.144Z,99.90
2019-04-30T06:32:09.428Z,99.90
2019-04-30T06:34:41.614Z,99.90
2019-04-30T06:37:09.791Z,99.90
2019-04-30T06:39:38.921Z,99.90
2019-04-30T06:42:12.501Z,99.90
2019-04-30T06:44:41.366Z,99.90
2019-04-30T06:47:09.253Z,99.90
2019-04-30T06:49:39.261Z,99.90
2019-04-30T06:52:19.539Z,99.90
2019-04-30T06:54:39.708Z,99.90
2019-04-30T06:57:09.756Z,99.90
2019-04-30T06:59:39.765Z,99.90
2019-04-30T07:02:30.652Z,99.90
2019-04-30T07:04:58.808Z,99.90
2019-04-30T07:07:38.523Z,99.90
2019-04-30T07:10:10.128Z,99.90
2019-04-30T07:12:59.006Z,99.90
2019-04-30T07:15:29.627Z,99.90
2019-04-30T07:17:59.178Z,99.90
2019-04-30T07:20:29.147Z,99.90
2019-04-30T07:23:02.387Z,99.90
2019-04-30T07:25:29.309Z,99.90
2019-04-30T07:27:59.823Z,99.90
2019-04-30T07:30:30.779Z,99.90
2019-04-30T07:32:59.717Z,99.90
2019-04-30T07:35:29.245Z,99.90
2019-04-30T07:38:00.635Z,99.90
2019-04-30T07:40:29.249Z,99.90
2019-04-30T07:42:59.125Z,99.90
2019-04-30T07:45:31.691Z,99.90
2019-04-30T07:47:59.385Z,99.90
2019-04-30T07:50:51.410Z,99.90
2019-04-30T07:53:18.754Z,99.90
2019-04-30T07:55:49.382Z,99.90
2019-04-30T07:58:20.472Z,99.90
2019-04-30T08:00:50.363Z,99.90
2019-04-30T08:03:44.385Z,99.90
2019-04-30T08:06:14.495Z,99.90
2019-04-30T08:08:43.580Z,99.80
2019-04-30T08:11:23.055Z,99.90
2019-04-30T08:13:43.382Z,98.30
2019-04-30T08:16:12.818Z,99.90
2019-04-30T08:18:41.772Z,97.90
2019-04-30T08:21:10.445Z,99.90
2019-04-30T08:23:39.792Z,99.90
2019-04-30T08:26:08.943Z,97.00
2019-04-30T08:28:38.693Z,94.90
2019-04-30T08:31:09.009Z,96.80
2019-04-30T08:33:40.086Z,95.80
2019-04-30T08:36:09.463Z,96.10
2019-04-30T08:38:39.444Z,93.30
2019-04-30T08:41:09.376Z,93.10
2019-04-30T08:43:39.392Z,95.70
2019-04-30T08:46:09.392Z,91.80
2019-04-30T08:48:49.861Z,90.40
2019-04-30T08:51:09.970Z,89.00
2019-04-30T08:53:41.086Z,91.20
2019-04-30T08:56:10.190Z,90.00
2019-04-30T08:58:39.206Z,87.50
2019-04-30T09:01:08.747Z,84.00
2019-04-30T09:03:39.253Z,87.80
2019-04-30T09:06:15.821Z,80.70
2019-04-30T09:08:45.672Z,81.10
2019-04-30T09:11:24.671Z,73.60
2019-04-30T09:13:45.083Z,71.40
2019-04-30T09:16:13.970Z,75.20
2019-04-30T09:18:42.671Z,80.30
2019-04-30T09:21:11.443Z,76.00
2019-04-30T09:23:47.737Z,73.50
2019-04-30T09:26:10.806Z,79.00
2019-04-30T09:28:41.066Z,79.90
2019-04-30T09:31:10.263Z,72.90
2019-04-30T09:33:39.419Z,76.10
2019-04-30T09:36:09.140Z,71.80
2019-04-30T09:38:38.909Z,73.80
2019-04-30T09:41:09.366Z,71.20
2019-04-30T09:43:40.403Z,68.50
2019-04-30T09:46:18.999Z,68.90
2019-04-30T09:48:39.389Z,72.00
2019-04-30T09:51:10.801Z,73.50
2019-04-30T09:53:39.697Z,71.90
2019-04-30T09:56:09.584Z,71.80
2019-04-30T09:58:39.361Z,73.40
2019-04-30T10:01:09.445Z,71.60
2019-04-30T10:03:39.667Z,66.20
2019-04-30T10:06:09.165Z,71.00
2019-04-30T10:08:47.802Z,67.50
2019-04-30T10:11:17.551Z,65.30
2019-04-30T10:13:46.375Z,62.90
2019-04-30T10:16:22.124Z,67.30
2019-04-30T10:18:50.869Z,65.40
2019-04-30T10:21:19.635Z,61.30
2019-04-30T10:23:49.915Z,62.20
2019-04-30T10:26:19.234Z,63.00
2019-04-30T10:28:50.504Z,55.80
2019-04-30T10:31:20.940Z,67.00
2019-04-30T10:33:49.983Z,63.90
2019-04-30T10:36:19.387Z,58.30
2019-04-30T10:38:49.417Z,56.40
2019-04-30T10:41:18.912Z,60.80
2019-04-30T10:43:49.236Z,57.60
2019-04-30T10:46:18.370Z,60.80
2019-04-30T10:48:47.123Z,64.00
2019-04-30T10:51:15.878Z,62.80
2019-04-30T10:53:44.643Z,56.00
2019-04-30T10:56:14.267Z,59.00
2019-04-30T10:58:43.599Z,60.60
2019-04-30T11:01:12.440Z,58.30
2019-04-30T11:03:42.917Z,62.20
2019-04-30T11:06:11.906Z,61.60
2019-04-30T11:08:40.649Z,61.70
2019-04-30T11:11:09.539Z,59.30
2019-04-30T11:13:38.241Z,62.00
2019-04-30T11:16:14.651Z,59.00
2019-04-30T11:18:38.534Z,60.50
2019-04-30T11:21:09.485Z,59.10
2019-04-30T11:23:39.550Z,59.00
2019-04-30T11:26:09.190Z,64.00
2019-04-30T11:28:38.476Z,59.80
2019-04-30T11:31:25.388Z,58.50
2019-04-30T11:33:56.012Z,56.60
2019-04-30T11:36:24.934Z,53.10
2019-04-30T11:38:53.848Z,56.30
2019-04-30T11:41:32.437Z,57.10
2019-04-30T11:43:53.012Z,53.60
2019-04-30T11:46:55.088Z,53.90
2019-04-30T11:49:23.788Z,58.20
2019-04-30T11:51:52.479Z,56.70
2019-04-30T11:54:21.366Z,56.70
2019-04-30T11:56:50.520Z,51.40
2019-04-30T11:59:19.638Z,57.20
2019-04-30T12:01:50.589Z,57.50
2019-04-30T12:04:19.526Z,58.30
2019-04-30T12:06:48.252Z,53.20
2019-04-30T12:09:32.408Z,54.60
2019-04-30T12:12:01.116Z,59.50
2019-04-30T12:14:29.935Z,54.60
2019-04-30T12:16:59.147Z,53.40
2019-04-30T12:19:28.673Z,49.00
2019-04-30T12:21:57.579Z,51.50
2019-04-30T12:24:26.390Z,52.90
2019-04-30T12:26:55.394Z,52.80
2019-04-30T12:29:24.180Z,53.20
2019-04-30T12:31:53.012Z,53.20
2019-04-30T12:34:21.760Z,49.30
2019-04-30T12:36:50.442Z,48.90
2019-04-30T12:39:19.527Z,47.60
2019-04-30T12:41:48.875Z,49.40
2019-04-30T12:44:17.831Z,52.50
2019-04-30T12:46:48.947Z,55.00
2019-04-30T12:49:19.003Z,46.70
2019-04-30T12:51:55.949Z,51.90
2019-04-30T12:54:42.656Z,50.00
2019-04-30T12:57:21.856Z,54.80
2019-04-30T12:59:50.600Z,53.10
2019-04-30T13:02:19.465Z,50.80
2019-04-30T13:04:49.303Z,53.00
2019-04-30T13:07:20.603Z,47.50
2019-04-30T13:09:49.779Z,51.60
2019-04-30T13:12:19.474Z,51.00
2019-04-30T13:14:52.416Z,52.10
2019-04-30T13:17:18.953Z,50.10
2019-04-30T13:19:47.899Z,51.90
2019-04-30T13:22:18.887Z,52.20
2019-04-30T13:24:49.568Z,48.10
2019-04-30T13:27:19.573Z,48.30
2019-04-30T13:29:55.490Z,49.20
2019-04-30T13:32:30.039Z,45.40
2019-04-30T13:35:00.960Z,44.50
2019-04-30T13:37:41.624Z,45.20
2019-04-30T13:40:20.244Z,47.40
2019-04-30T13:42:50.131Z,45.80
2019-04-30T13:45:20.689Z,48.40
2019-04-30T13:47:49.559Z,51.00
2019-04-30T13:50:19.744Z,45.90
2019-04-30T13:52:49.106Z,47.40
2019-04-30T13:55:19.234Z,46.90
2019-04-30T13:57:48.268Z,44.50
2019-04-30T14:00:22.399Z,45.10
2019-04-30T14:03:00.561Z,43.00
2019-04-30T14:05:28.126Z,43.50
2019-04-30T14:08:12.645Z,44.30
2019-04-30T14:10:43.227Z,49.00
2019-04-30T14:13:12.167Z,44.40
2019-04-30T14:15:41.137Z,47.70
2019-04-30T14:18:09.832Z,44.70
2019-04-30T14:20:38.581Z,44.10
2019-04-30T14:23:08.544Z,43.90
2019-04-30T14:25:38.479Z,45.20
2019-04-30T14:28:08.959Z,46.60
2019-04-30T14:30:39.277Z,49.00
2019-04-30T14:33:09.415Z,44.90
2019-04-30T14:35:38.708Z,45.90
2019-04-30T14:38:09.045Z,45.20
2019-04-30T14:40:39.957Z,44.00
2019-04-30T14:43:30.870Z,43.60
2019-04-30T14:46:31.591Z,43.80
2019-04-30T14:49:14.844Z,44.70
2019-04-30T14:51:41.886Z,43.40
2019-04-30T14:54:15.667Z,44.00
2019-04-30T14:56:59.365Z,42.50
2019-04-30T14:59:46.270Z,42.70
2019-04-30T15:02:25.636Z,46.30
2019-04-30T15:04:54.375Z,44.60
2019-04-30T15:07:23.613Z,43.70
2019-04-30T15:09:53.454Z,42.30
2019-04-30T15:12:22.321Z,43.60
2019-04-30T15:14:51.188Z,43.10
2019-04-30T15:17:20.128Z,43.90
2019-04-30T15:19:54.258Z,42.30
2019-04-30T15:22:20.394Z,45.20
2019-04-30T15:24:49.287Z,43.30
2019-04-30T15:27:20.456Z,41.60
2019-04-30T15:29:57.004Z,42.10
2019-04-30T15:32:19.834Z,41.60
2019-04-30T15:34:49.130Z,39.10
2019-04-30T15:37:21.734Z,39.80
2019-04-30T15:39:49.005Z,40.60
2019-04-30T15:42:19.161Z,40.50
2019-04-30T15:44:49.658Z,43.50
2019-04-30T15:47:19.695Z,38.70
2019-04-30T15:49:49.322Z,37.40
2019-04-30T15:52:20.970Z,37.80
2019-04-30T15:54:49.794Z,41.30
2019-04-30T15:57:19.027Z,39.70
2019-04-30T15:59:48.120Z,41.20
2019-04-30T16:02:36.125Z,42.50
2019-04-30T16:05:12.027Z,42.20
2019-04-30T16:08:00.753Z,39.80
2019-04-30T16:10:51.569Z,41.00
2019-04-30T16:13:22.142Z,44.00
2019-04-30T16:15:50.986Z,38.70
2019-04-30T16:18:20.023Z,40.10
2019-04-30T16:20:49.890Z,39.70
2019-04-30T16:23:19.180Z,40.70
2019-04-30T16:25:48.306Z,40.90
2019-04-30T16:28:17.187Z,40.70
2019-04-30T16:30:46.266Z,40.00
2019-04-30T16:33:15.295Z,38.20
2019-04-30T16:35:44.627Z,38.10
2019-04-30T16:38:13.715Z,39.00
2019-04-30T16:40:42.515Z,39.00
2019-04-30T16:43:11.378Z,36.20
2019-04-30T16:45:40.649Z,37.20
2019-04-30T16:48:12.038Z,37.50
2019-04-30T16:50:43.263Z,37.40
2019-04-30T16:53:14.211Z,39.00
2019-04-30T16:55:43.333Z,38.10
2019-04-30T16:58:12.195Z,39.00
2019-04-30T17:00:42.742Z,40.30
2019-04-30T17:03:19.823Z,39.00
2019-04-30T17:05:54.027Z,42.40
2019-04-30T17:08:36.039Z,40.00
2019-04-30T17:11:30.800Z,40.90
2019-04-30T17:14:03.023Z,39.70
2019-04-30T17:16:32.266Z,40.60
2019-04-30T17:19:01.090Z,40.30
2019-04-30T17:21:30.358Z,43.00
2019-04-30T17:24:00.005Z,42.60
2019-04-30T17:26:28.963Z,41.40
2019-04-30T17:28:59.827Z,42.00
2019-04-30T17:31:36.710Z,40.30
2019-04-30T17:34:05.807Z,42.70
2019-04-30T17:36:34.993Z,43.40
2019-04-30T17:39:07.529Z,44.00
2019-04-30T17:41:36.574Z,46.00
2019-04-30T17:44:05.341Z,47.40
2019-04-30T17:46:34.106Z,46.30
2019-04-30T17:49:03.050Z,44.20
2019-04-30T17:51:31.839Z,47.60
2019-04-30T17:54:14.913Z,52.20
2019-04-30T17:56:45.239Z,51.40
2019-04-30T17:59:14.746Z,48.40
2019-04-30T18:01:49.506Z,48.20
2019-04-30T18:04:18.686Z,46.60
2019-04-30T18:06:50.652Z,44.40
2019-04-30T18:09:20.009Z,44.80
2019-04-30T18:11:49.568Z,47.90
2019-04-30T18:14:18.799Z,48.40
2019-04-30T18:16:48.642Z,50.00
2019-04-30T18:19:25.452Z,50.60
2019-04-30T18:22:02.012Z,52.00
2019-04-30T18:24:36.244Z,51.00
2019-04-30T18:27:16.210Z,51.20
2019-04-30T18:29:44.980Z,50.80
2019-04-30T18:32:14.088Z,51.20
2019-04-30T18:34:42.915Z,50.90
2019-04-30T18:37:11.652Z,51.40
2019-04-30T18:39:40.636Z,51.80
2019-04-30T18:42:11.071Z,52.50
2019-04-30T18:44:40.003Z,55.70
2019-04-30T18:47:09.089Z,53.70
2019-04-30T18:49:39.500Z,53.70
2019-04-30T18:52:09.076Z,56.60
2019-04-30T18:54:39.979Z,56.30
2019-04-30T18:57:08.861Z,56.40
2019-04-30T18:59:38.783Z,56.00
2019-04-30T19:02:10.026Z,57.40
2019-04-30T19:04:40.747Z,58.50
2019-04-30T19:07:26.730Z,57.70
2019-04-30T19:10:07.535Z,61.10
2019-04-30T19:12:59.083Z,61.40
2019-04-30T19:16:18.620Z,60.30
2019-04-30T19:18:38.151Z,59.40
2019-04-30T19:21:13.164Z,60.00
2019-04-30T19:23:43.732Z,61.20
2019-04-30T19:26:12.785Z,61.10
2019-04-30T19:28:41.775Z,62.20
2019-04-30T19:31:11.754Z,60.00
2019-04-30T19:33:41.288Z,59.70
2019-04-30T19:36:11.549Z,60.00
2019-04-30T19:38:42.755Z,60.30
2019-04-30T19:41:11.818Z,60.40
2019-04-30T19:43:42.032Z,63.10
2019-04-30T19:46:11.118Z,62.70
2019-04-30T19:48:42.427Z,63.90
2019-04-30T19:51:13.319Z,64.10
2019-04-30T19:53:43.321Z,64.90
2019-04-30T19:56:12.835Z,67.40
2019-04-30T19:58:54.330Z,63.80
2019-04-30T20:01:16.155Z,65.10
2019-04-30T20:03:45.543Z,66.60
2019-04-30T20:06:19.011Z,65.60
2019-04-30T20:08:47.665Z,65.00
2019-04-30T20:11:16.928Z,65.50
2019-04-30T20:13:45.862Z,66.40
2019-04-30T20:16:14.930Z,70.90
2019-04-30T20:18:43.820Z,70.00
2019-04-30T20:21:27.590Z,68.80
2019-04-30T20:23:47.572Z,71.50
2019-04-30T20:26:18.637Z,72.30
2019-04-30T20:28:48.749Z,70.00
2019-04-30T20:31:19.009Z,73.30
2019-04-30T20:33:48.932Z,68.60
2019-04-30T20:36:19.073Z,69.50
2019-04-30T20:39:25.486Z,75.00
2019-04-30T20:41:54.645Z,70.90
2019-04-30T20:44:23.535Z,72.30
2019-04-30T20:46:52.475Z,71.50
2019-04-30T20:49:21.210Z,74.00
2019-04-30T20:51:55.614Z,71.60
2019-04-30T20:54:20.737Z,73.10
2019-04-30T20:56:51.002Z,74.90
2019-04-30T20:59:20.545Z,78.90
2019-04-30T21:01:49.538Z,75.00
2019-04-30T21:04:20.769Z,78.10
2019-04-30T21:06:49.651Z,76.50
2019-04-30T21:09:18.664Z,75.10
2019-04-30T21:11:48.975Z,76.10
2019-04-30T21:14:19.178Z,77.30
2019-04-30T21:16:48.238Z,78.40
2019-04-30T21:19:17.120Z,83.00
2019-04-30T21:21:46.128Z,80.10
2019-04-30T21:24:15.049Z,78.70
2019-04-30T21:26:44.135Z,82.50
2019-04-30T21:29:15.664Z,78.00
2019-04-30T21:32:00.994Z,78.10
2019-04-30T21:34:46.687Z,82.10
2019-04-30T21:37:15.613Z,74.40
2019-04-30T21:39:44.384Z,63.90
2019-04-30T21:42:13.153Z,61.00
2019-04-30T21:44:44.373Z,61.30
2019-04-30T21:47:13.116Z,62.10
2019-04-30T21:49:42.470Z,66.10
2019-04-30T21:52:11.357Z,68.80
2019-04-30T21:54:40.146Z,71.70
2019-04-30T21:57:10.172Z,75.20
2019-04-30T21:59:39.056Z,73.20
2019-04-30T22:02:08.185Z,78.00
2019-04-30T22:04:36.953Z,72.30
2019-04-30T22:07:05.844Z,72.70
2019-04-30T22:09:34.566Z,73.80
2019-04-30T22:12:03.524Z,71.40
2019-04-30T22:14:32.304Z,70.90
2019-04-30T22:17:01.052Z,78.00
2019-04-30T22:19:29.838Z,75.70
2019-04-30T22:21:59.487Z,78.30
2019-04-30T22:24:30.379Z,71.70
2019-04-30T22:26:58.881Z,72.70
2019-04-30T22:29:38.790Z,75.60
2019-04-30T22:31:59.381Z,75.30
2019-04-30T22:34:28.776Z,76.40
2019-04-30T22:36:58.663Z,77.60
2019-04-30T22:39:46.743Z,73.20
2019-04-30T22:42:36.985Z,71.70
2019-04-30T22:45:13.869Z,72.60
2019-04-30T22:47:43.190Z,73.80
2019-04-30T22:50:12.692Z,71.90
2019-04-30T22:52:41.479Z,75.10
2019-04-30T22:55:10.527Z,71.30
2019-04-30T22:57:39.309Z,70.00
2019-04-30T23:00:11.489Z,69.20
2019-04-30T23:02:55.430Z,70.00
2019-04-30T23:05:24.199Z,70.50
2019-04-30T23:07:52.943Z,66.30
2019-04-30T23:10:21.954Z,67.00
2019-04-30T23:12:50.931Z,66.30
2019-04-30T23:15:21.145Z,69.90
2019-04-30T23:17:50.056Z,67.40
2019-04-30T23:20:18.839Z,66.20
2019-04-30T23:22:47.620Z,68.90
2019-04-30T23:25:16.529Z,70.40
2019-04-30T23:27:45.405Z,70.00
2019-04-30T23:30:14.591Z,73.20
2019-04-30T23:32:43.327Z,73.70
2019-04-30T23:35:12.406Z,79.60
2019-04-30T23:37:41.121Z,72.50
2019-04-30T23:40:27.584Z,74.00
2019-04-30T23:42:56.672Z,69.10
2019-04-30T23:45:25.567Z,72.40
2019-04-30T23:47:54.478Z,70.60
2019-04-30T23:50:23.628Z,75.10
2019-04-30T23:52:52.350Z,73.80
2019-04-30T23:55:21.282Z,73.30
2019-04-30T23:57:50.008Z,75.40
